createdAt,value
2018-12-22T00:00:28.073Z,0.50
2018-12-22T00:02:56.230Z,0.65
2018-12-22T00:05:24.409Z,0.60
2018-12-22T00:07:52.607Z,0.70
2018-12-22T00:10:20.889Z,0.68
2018-12-22T00:12:49.138Z,0.65
2018-12-22T00:15:17.256Z,0.60
2018-12-22T00:17:45.460Z,0.60
2018-12-22T00:20:13.795Z,0.75
2018-12-22T00:22:42.989Z,0.60
2018-12-22T00:25:11.136Z,0.53
2018-12-22T00:27:39.321Z,0.50
2018-12-22T00:30:08.200Z,0.60
2018-12-22T00:32:37.363Z,0.57
2018-12-22T00:35:05.773Z,0.70
2018-12-22T00:37:33.928Z,0.80
2018-12-22T00:40:02.118Z,0.50
2018-12-22T00:42:30.460Z,0.80
2018-12-22T00:44:58.692Z,0.72
2018-12-22T00:47:26.859Z,0.72
2018-12-22T00:49:55.046Z,0.72
2018-12-22T00:52:23.139Z,0.80
2018-12-22T00:54:51.329Z,0.70
2018-12-22T00:57:19.512Z,0.53
2018-12-22T00:59:47.707Z,0.60
2018-12-22T01:02:15.896Z,0.70
2018-12-22T01:04:44.213Z,0.70
2018-12-22T01:07:12.416Z,0.70
2018-12-22T01:09:40.545Z,0.65
2018-12-22T01:12:08.739Z,0.70
2018-12-22T01:14:36.925Z,0.60
2018-12-22T01:17:05.156Z,0.70
2018-12-22T01:19:33.293Z,0.90
2018-12-22T01:22:01.502Z,0.80
2018-12-22T01:24:29.767Z,0.80
2018-12-22T01:26:57.959Z,0.68
2018-12-22T01:29:26.161Z,0.90
2018-12-22T01:31:54.436Z,0.60
2018-12-22T01:34:22.624Z,0.98
2018-12-22T01:36:50.907Z,0.40
2018-12-22T01:39:18.989Z,0.68
2018-12-22T01:41:47.183Z,0.60
2018-12-22T01:44:15.364Z,0.60
2018-12-22T01:46:43.552Z,0.50
2018-12-22T01:49:11.655Z,0.57
2018-12-22T01:51:39.827Z,0.53
2018-12-22T01:54:08.020Z,0.50
2018-12-22T01:56:36.201Z,0.40
2018-12-22T01:59:04.436Z,0.50
2018-12-22T02:01:32.587Z,0.70
2018-12-22T02:04:00.764Z,0.60
2018-12-22T02:06:29.025Z,0.40
2018-12-22T02:08:57.139Z,0.45
2018-12-22T02:11:25.349Z,0.45
2018-12-22T02:13:53.503Z,0.40
2018-12-22T02:16:21.693Z,0.50
2018-12-22T02:18:49.976Z,0.42
2018-12-22T02:21:18.192Z,0.50
2018-12-22T02:23:46.375Z,0.60
2018-12-22T02:26:14.616Z,0.65
2018-12-22T02:28:42.752Z,0.90
2018-12-22T02:31:10.993Z,0.60
2018-12-22T02:33:39.129Z,0.65
2018-12-22T02:36:07.315Z,0.70
2018-12-22T02:38:35.552Z,0.70
2018-12-22T02:41:03.675Z,0.50
2018-12-22T02:43:31.882Z,0.45
2018-12-22T02:46:00.161Z,0.53
2018-12-22T02:48:28.347Z,0.60
2018-12-22T02:50:56.691Z,0.60
2018-12-22T02:53:24.837Z,0.50
2018-12-22T02:55:53.009Z,0.80
2018-12-22T02:58:21.204Z,0.65
2018-12-22T03:00:49.378Z,1.02
2018-12-22T03:03:17.571Z,0.40
2018-12-22T03:05:45.980Z,0.72
2018-12-22T03:08:14.157Z,0.60
2018-12-22T03:10:42.445Z,0.70
2018-12-22T03:13:10.635Z,0.60
2018-12-22T03:15:38.885Z,0.47
2018-12-22T03:18:07.110Z,0.70
2018-12-22T03:20:35.338Z,0.78
2018-12-22T03:23:03.484Z,0.55
2018-12-22T03:25:31.882Z,0.60
2018-12-22T03:28:00.267Z,1.07
2018-12-22T03:30:28.486Z,0.65
2018-12-22T03:32:56.797Z,0.80
2018-12-22T03:35:25.023Z,0.40
2018-12-22T03:37:53.221Z,0.78
2018-12-22T03:40:21.411Z,0.60
2018-12-22T03:42:49.684Z,0.68
2018-12-22T03:45:17.888Z,0.80
2018-12-22T03:47:46.160Z,0.72
2018-12-22T03:50:14.259Z,0.70
2018-12-22T03:52:43.464Z,0.78
2018-12-22T03:55:11.744Z,0.80
2018-12-22T03:57:40.012Z,0.90
2018-12-22T04:00:08.232Z,0.95
2018-12-22T04:02:37.435Z,0.53
2018-12-22T04:05:06.620Z,0.60
2018-12-22T04:07:34.758Z,0.78
2018-12-22T04:10:03.098Z,0.80
2018-12-22T04:12:32.338Z,0.57
2018-12-22T04:15:00.665Z,0.57
2018-12-22T04:17:28.912Z,0.75
2018-12-22T04:19:57.108Z,0.50
2018-12-22T04:22:25.276Z,0.60
2018-12-22T04:24:54.928Z,0.70
2018-12-22T04:27:23.088Z,0.60
2018-12-22T04:29:51.352Z,0.50
2018-12-22T04:32:19.512Z,0.53
2018-12-22T04:34:47.656Z,0.50
2018-12-22T04:37:15.840Z,0.82
2018-12-22T04:39:44.037Z,0.70
2018-12-22T04:42:12.312Z,0.70
2018-12-22T04:44:40.531Z,0.40
2018-12-22T04:47:08.700Z,0.60
2018-12-22T04:49:36.798Z,0.40
2018-12-22T04:52:04.969Z,0.72
2018-12-22T04:54:33.148Z,0.78
2018-12-22T04:57:01.337Z,0.40
2018-12-22T04:59:29.519Z,0.62
2018-12-22T05:01:57.770Z,0.30
2018-12-22T05:04:26.056Z,0.30
2018-12-22T05:06:54.259Z,0.40
2018-12-22T05:09:22.424Z,0.57
2018-12-22T05:11:50.574Z,0.93
2018-12-22T05:14:18.768Z,0.42
2018-12-22T05:16:46.991Z,0.50
2018-12-22T05:19:15.128Z,0.40
2018-12-22T05:21:43.317Z,0.82
2018-12-22T05:24:11.492Z,0.50
2018-12-22T05:26:39.701Z,0.75
2018-12-22T05:29:07.865Z,0.55
2018-12-22T05:31:36.069Z,0.60
2018-12-22T05:34:04.356Z,0.40
2018-12-22T05:36:32.532Z,0.50
2018-12-22T05:39:00.715Z,0.82
2018-12-22T05:41:28.924Z,0.68
2018-12-22T05:43:57.079Z,0.70
2018-12-22T05:46:25.302Z,0.65
2018-12-22T05:48:53.592Z,0.57
2018-12-22T05:51:21.760Z,0.53
2018-12-22T05:53:49.960Z,0.50
2018-12-22T05:56:18.136Z,0.50
2018-12-22T05:58:46.317Z,0.50
2018-12-22T06:01:14.504Z,0.70
2018-12-22T06:03:42.616Z,0.40
2018-12-22T06:06:10.780Z,0.50
2018-12-22T06:08:38.975Z,0.35
2018-12-22T06:11:07.161Z,0.45
2018-12-22T06:13:35.349Z,0.40
2018-12-22T06:16:03.536Z,0.40
2018-12-22T06:18:31.819Z,0.40
2018-12-22T06:21:00.040Z,0.25
2018-12-22T06:23:28.189Z,0.40
2018-12-22T06:25:56.375Z,0.50
2018-12-22T06:28:24.568Z,0.55
2018-12-22T06:30:52.744Z,0.30
2018-12-22T06:33:20.950Z,0.30
2018-12-22T06:35:49.103Z,0.40
2018-12-22T06:38:17.313Z,0.30
2018-12-22T06:40:45.507Z,0.40
2018-12-22T06:43:13.693Z,0.50
2018-12-22T06:45:41.869Z,0.50
2018-12-22T06:48:10.173Z,0.30
2018-12-22T06:50:38.348Z,0.50
2018-12-22T06:53:06.536Z,0.40
2018-12-22T06:55:34.712Z,0.42
2018-12-22T06:58:02.920Z,0.50
2018-12-22T07:00:31.024Z,0.50
2018-12-22T07:02:59.176Z,0.25
2018-12-22T07:05:27.368Z,0.20
2018-12-22T07:07:55.553Z,0.50
2018-12-22T07:10:25.543Z,0.30
2018-12-22T07:12:53.884Z,0.40
2018-12-22T07:15:22.072Z,0.40
2018-12-22T07:17:51.208Z,0.40
2018-12-22T07:20:19.371Z,0.50
2018-12-22T07:22:47.593Z,0.50
2018-12-22T07:25:15.834Z,0.37
2018-12-22T07:27:44.127Z,0.53
2018-12-22T07:30:12.399Z,0.30
2018-12-22T07:32:41.624Z,0.40
2018-12-22T07:35:09.912Z,0.50
2018-12-22T07:37:38.143Z,0.57
2018-12-22T07:40:06.320Z,0.60
2018-12-22T07:42:35.500Z,0.60
2018-12-22T07:45:03.912Z,0.53
2018-12-22T07:47:32.069Z,0.50
2018-12-22T07:50:00.264Z,0.57
2018-12-22T07:52:28.461Z,0.70
2018-12-22T07:54:56.632Z,0.68
2018-12-22T07:57:25.015Z,0.78
2018-12-22T07:59:53.228Z,0.70
2018-12-22T08:02:21.391Z,0.68
2018-12-22T08:04:49.592Z,0.90
2018-12-22T08:07:18.144Z,0.80
2018-12-22T08:09:46.264Z,0.78
2018-12-22T08:12:14.457Z,1.05
2018-12-22T08:14:42.679Z,0.68
2018-12-22T08:17:10.824Z,0.75
2018-12-22T08:19:39.124Z,0.90
2018-12-22T08:22:08.538Z,0.95
2018-12-22T08:24:36.827Z,1.00
2018-12-22T08:27:05.004Z,0.70
2018-12-22T08:29:33.201Z,0.90
2018-12-22T08:32:01.372Z,0.80
2018-12-22T08:34:29.572Z,1.00
2018-12-22T08:36:57.752Z,0.70
2018-12-22T08:39:26.011Z,0.70
2018-12-22T08:41:54.135Z,0.85
2018-12-22T08:44:22.328Z,0.80
2018-12-22T08:46:50.704Z,0.88
2018-12-22T08:49:18.935Z,0.70
2018-12-22T08:51:47.096Z,0.90
2018-12-22T08:54:15.213Z,0.47
2018-12-22T08:56:43.368Z,0.60
2018-12-22T08:59:11.538Z,0.50
2018-12-22T09:01:39.733Z,0.80
2018-12-22T09:04:07.901Z,0.70
2018-12-22T09:06:36.109Z,0.68
2018-12-22T09:09:06.853Z,0.78
2018-12-22T09:11:35.064Z,0.80
2018-12-22T09:14:03.240Z,0.50
2018-12-22T09:16:31.434Z,0.55
2018-12-22T09:18:59.588Z,0.53
2018-12-22T09:21:27.788Z,0.88
2018-12-22T09:23:55.976Z,0.60
2018-12-22T09:26:24.196Z,0.80
2018-12-22T09:31:25.848Z,1.05
2018-12-22T09:33:54.040Z,0.90
2018-12-22T09:36:22.258Z,0.80
2018-12-22T09:38:50.724Z,0.62
2018-12-22T09:41:18.912Z,0.80
2018-12-22T09:43:47.107Z,1.27
2018-12-22T09:46:15.398Z,0.90
2018-12-22T09:48:43.568Z,0.80
2018-12-22T09:51:11.672Z,1.15
2018-12-22T09:53:39.836Z,0.78
2018-12-22T09:56:08.031Z,1.10
2018-12-22T09:58:36.215Z,1.00
2018-12-22T10:01:09.276Z,1.00
2018-12-22T10:03:34.544Z,1.15
2018-12-22T10:06:02.720Z,1.07
2018-12-22T10:08:30.924Z,1.10
2018-12-22T10:10:59.100Z,0.98
2018-12-22T10:13:27.287Z,1.27
2018-12-22T10:15:55.477Z,1.27
2018-12-22T10:18:23.671Z,0.82
2018-12-22T10:20:51.844Z,0.80
2018-12-22T10:23:20.045Z,0.93
2018-12-22T10:25:48.208Z,1.00
2018-12-22T10:28:16.481Z,1.02
2018-12-22T10:30:44.580Z,0.57
2018-12-22T10:33:12.781Z,0.70
2018-12-22T10:35:40.968Z,0.50
2018-12-22T10:38:09.154Z,0.70
2018-12-22T10:40:37.344Z,0.30
2018-12-22T10:43:05.541Z,0.45
2018-12-22T10:45:33.711Z,0.57
2018-12-22T10:48:01.900Z,0.60
2018-12-22T10:50:30.088Z,0.80
2018-12-22T10:52:58.288Z,1.10
2018-12-22T10:55:26.464Z,0.95
2018-12-22T10:57:54.700Z,0.90
2018-12-22T11:00:22.821Z,1.40
2018-12-22T11:02:51.056Z,0.95
2018-12-22T11:05:19.225Z,1.32
2018-12-22T11:07:48.187Z,1.75
2018-12-22T11:10:21.580Z,1.17
2018-12-22T11:12:50.136Z,1.27
2018-12-22T11:15:18.300Z,1.67
2018-12-22T11:17:46.490Z,1.17
2018-12-22T11:20:14.783Z,1.40
2018-12-22T11:22:42.968Z,1.00
2018-12-22T11:25:14.913Z,1.00
2018-12-22T11:27:43.154Z,1.27
2018-12-22T11:30:18.964Z,0.80
2018-12-22T11:32:47.085Z,1.02
2018-12-22T11:35:15.276Z,1.05
2018-12-22T11:37:43.472Z,0.72
2018-12-22T11:40:11.796Z,1.15
2018-12-22T11:42:47.432Z,0.98
2018-12-22T11:45:10.071Z,1.00
2018-12-22T11:47:53.614Z,1.02
2018-12-22T11:50:24.540Z,1.00
2018-12-22T11:52:53.539Z,1.32
2018-12-22T11:55:21.772Z,1.12
2018-12-22T11:57:49.939Z,1.20
2018-12-22T12:00:18.140Z,1.10
2018-12-22T12:02:46.320Z,1.40
2018-12-22T12:05:14.542Z,1.47
2018-12-22T12:07:42.963Z,1.17
2018-12-22T12:10:11.101Z,1.77
2018-12-22T12:12:39.280Z,0.90
2018-12-22T12:15:13.079Z,1.40
2018-12-22T12:18:47.864Z,1.60
2018-12-22T12:21:16.036Z,1.22
2018-12-22T12:23:44.207Z,1.32
2018-12-22T12:26:12.412Z,1.47
2018-12-22T12:28:40.604Z,1.47
2018-12-22T12:31:08.780Z,1.20
2018-12-22T12:33:37.000Z,0.90
2018-12-22T12:36:05.164Z,1.77
2018-12-22T12:38:33.344Z,1.60
2018-12-22T12:41:01.535Z,1.20
2018-12-22T12:43:29.712Z,1.20
2018-12-22T12:45:57.948Z,1.80
2018-12-22T12:48:26.732Z,1.77
2018-12-22T12:50:54.886Z,1.95
2018-12-22T12:53:23.082Z,1.40
2018-12-22T12:55:51.289Z,1.52
2018-12-22T12:58:19.452Z,1.17
2018-12-22T13:00:47.645Z,1.52
2018-12-22T13:03:15.753Z,1.25
2018-12-22T13:05:43.965Z,1.32
2018-12-22T13:08:12.100Z,1.40
2018-12-22T13:10:40.397Z,1.55
2018-12-22T13:13:43.596Z,1.20
2018-12-22T13:16:11.794Z,1.25
2018-12-22T13:18:40.165Z,0.88
2018-12-22T13:21:09.176Z,1.30
2018-12-22T13:23:37.380Z,1.32
2018-12-22T13:26:05.569Z,1.30
2018-12-22T13:28:33.843Z,1.60
2018-12-22T13:31:02.048Z,1.40
2018-12-22T13:33:30.301Z,1.82
2018-12-22T13:35:58.516Z,1.75
2018-12-22T13:38:27.276Z,1.45
2018-12-22T13:40:55.660Z,1.47
2018-12-22T13:43:23.791Z,1.50
2018-12-22T13:45:52.076Z,0.90
2018-12-22T13:48:20.376Z,1.07
2018-12-22T13:50:48.715Z,1.10
2018-12-22T13:53:17.028Z,2.05
2018-12-22T13:55:45.257Z,1.72
2018-12-22T13:58:13.455Z,1.52
2018-12-22T14:00:44.435Z,1.25
2018-12-22T14:03:15.686Z,1.25
2018-12-22T14:05:44.311Z,1.17
2018-12-22T14:08:12.524Z,1.65
2018-12-22T14:10:40.651Z,1.62
2018-12-22T14:13:08.897Z,1.57
2018-12-22T14:15:44.737Z,1.95
2018-12-22T14:18:24.409Z,1.47
2018-12-22T14:20:52.625Z,1.17
2018-12-22T14:23:22.604Z,2.27
2018-12-22T14:25:50.827Z,3.40
2018-12-22T14:28:19.037Z,2.98
2018-12-22T14:30:47.144Z,2.37
2018-12-22T14:33:15.385Z,1.67
2018-12-22T14:35:47.928Z,1.55
2018-12-22T14:38:16.063Z,1.92
2018-12-22T14:40:44.240Z,1.47
2018-12-22T14:43:12.436Z,0.90
2018-12-22T14:45:40.614Z,1.00
2018-12-22T14:48:08.804Z,0.82
2018-12-22T14:50:37.004Z,0.95
2018-12-22T14:53:05.179Z,1.10
2018-12-22T14:55:33.387Z,0.75
2018-12-22T14:58:09.713Z,1.17
2018-12-22T15:00:37.935Z,1.30
2018-12-22T15:03:06.115Z,0.93
2018-12-22T15:05:34.335Z,1.35
2018-12-22T15:08:02.498Z,1.37
2018-12-22T15:10:30.671Z,2.00
2018-12-22T15:12:58.883Z,2.17
2018-12-22T15:15:27.051Z,1.60
2018-12-22T15:17:55.251Z,1.12
2018-12-22T15:20:25.335Z,1.37
2018-12-22T15:22:53.480Z,1.45
2018-12-22T15:25:21.661Z,1.10
2018-12-22T15:27:49.822Z,1.40
2018-12-22T15:30:18.024Z,0.70
2018-12-22T15:32:54.193Z,0.90
2018-12-22T15:35:16.449Z,1.20
2018-12-22T15:37:44.622Z,0.80
2018-12-22T15:40:12.832Z,1.20
2018-12-22T15:42:40.928Z,1.20
2018-12-22T15:45:11.508Z,0.80
2018-12-22T15:47:39.909Z,0.85
2018-12-22T15:50:10.500Z,0.85
2018-12-22T15:52:38.605Z,0.88
2018-12-22T15:55:07.342Z,1.02
2018-12-22T15:57:35.562Z,0.85
2018-12-22T16:00:04.637Z,1.00
2018-12-22T16:02:32.846Z,0.80
2018-12-22T16:05:00.940Z,0.82
2018-12-22T16:07:29.403Z,0.78
2018-12-22T16:09:57.812Z,0.62
2018-12-22T16:12:26.012Z,0.80
2018-12-22T16:14:54.194Z,0.70
2018-12-22T16:17:22.384Z,0.68
2018-12-22T16:19:50.490Z,0.57
2018-12-22T16:22:18.748Z,0.80
2018-12-22T16:24:46.942Z,1.00
2018-12-22T16:27:15.129Z,0.93
2018-12-22T16:29:45.004Z,1.17
2018-12-22T16:32:13.145Z,1.00
2018-12-22T16:34:41.320Z,1.15
2018-12-22T16:37:09.520Z,0.98
2018-12-22T16:39:37.689Z,0.80
2018-12-22T16:42:05.889Z,1.22
2018-12-22T16:44:34.108Z,1.20
2018-12-22T16:47:02.300Z,1.05
2018-12-22T16:49:30.544Z,0.98
2018-12-22T16:51:58.639Z,0.95
2018-12-22T16:54:26.820Z,1.10
2018-12-22T16:56:55.050Z,1.32
2018-12-22T16:59:23.881Z,1.40
2018-12-22T17:01:59.928Z,1.70
2018-12-22T17:04:28.072Z,1.02
2018-12-22T17:06:56.247Z,1.02
2018-12-22T17:09:24.441Z,1.15
2018-12-22T17:11:52.799Z,1.42
2018-12-22T17:14:20.923Z,1.10
2018-12-22T17:16:49.108Z,1.00
2018-12-22T17:19:17.294Z,0.98
2018-12-22T17:21:53.546Z,1.12
2018-12-22T17:24:29.912Z,1.00
2018-12-22T17:26:58.679Z,1.20
2018-12-22T17:29:26.935Z,1.37
2018-12-22T17:31:55.117Z,1.70
2018-12-22T17:34:23.312Z,1.10
2018-12-22T17:36:51.491Z,1.00
2018-12-22T17:39:19.683Z,1.20
2018-12-22T17:41:48.137Z,1.00
2018-12-22T17:44:16.268Z,1.02
2018-12-22T17:46:44.543Z,0.95
2018-12-22T17:49:12.756Z,1.47
2018-12-22T17:51:40.925Z,1.10
2018-12-22T17:54:09.019Z,1.37
2018-12-22T17:56:37.196Z,1.00
2018-12-22T17:59:05.377Z,1.05
2018-12-22T18:01:33.644Z,1.60
2018-12-22T18:04:01.753Z,1.55
2018-12-22T18:06:29.948Z,1.90
2018-12-22T18:08:58.129Z,1.50
2018-12-22T18:11:26.328Z,1.22
2018-12-22T18:13:54.521Z,1.57
2018-12-22T18:16:22.692Z,1.57
2018-12-22T18:18:50.987Z,1.62
2018-12-22T18:21:19.173Z,2.00
2018-12-22T18:23:47.348Z,1.40
2018-12-22T18:26:15.457Z,1.50
2018-12-22T18:28:43.625Z,1.80
2018-12-22T18:31:11.820Z,1.98
2018-12-22T18:33:39.991Z,1.87
2018-12-22T18:36:08.197Z,1.40
2018-12-22T18:38:36.368Z,2.40
2018-12-22T18:41:05.754Z,2.05
2018-12-22T18:43:33.864Z,1.70
2018-12-22T18:46:02.080Z,1.27
2018-12-22T18:48:30.248Z,1.15
2018-12-22T18:50:58.436Z,1.30
2018-12-22T18:53:26.531Z,1.60
2018-12-22T18:55:54.724Z,1.35
2018-12-22T18:58:22.892Z,1.47
2018-12-22T19:00:51.075Z,1.52
2018-12-22T19:03:19.280Z,1.27
2018-12-22T19:05:47.443Z,1.80
2018-12-22T19:08:16.528Z,1.92
2018-12-22T19:10:51.883Z,2.05
2018-12-22T19:13:20.009Z,2.17
2018-12-22T19:15:48.289Z,2.72
2018-12-22T19:18:16.492Z,2.95
2018-12-22T19:20:47.905Z,2.70
2018-12-22T19:23:16.920Z,3.12
2018-12-22T19:25:45.024Z,3.02
2018-12-22T19:28:13.222Z,2.47
2018-12-22T19:30:41.404Z,2.83
2018-12-22T19:33:09.595Z,2.60
2018-12-22T19:35:37.785Z,2.27
2018-12-22T19:38:06.069Z,1.62
2018-12-22T19:40:34.317Z,1.60
2018-12-22T19:43:02.461Z,1.55
2018-12-22T19:45:30.629Z,1.20
2018-12-22T19:47:58.828Z,1.60
2018-12-22T19:50:26.996Z,1.60
2018-12-22T19:52:55.199Z,1.35
2018-12-22T19:55:23.372Z,1.70
2018-12-22T19:57:51.576Z,1.52
2018-12-22T20:00:19.757Z,1.85
2018-12-22T20:02:47.960Z,1.45
2018-12-22T20:05:16.125Z,1.70
2018-12-22T20:07:44.324Z,2.08
2018-12-22T20:10:12.488Z,1.87
2018-12-22T20:12:40.690Z,2.37
2018-12-22T20:15:08.784Z,3.10
2018-12-22T20:17:37.051Z,1.90
2018-12-22T20:20:06.549Z,2.50
2018-12-22T20:22:35.683Z,2.65
2018-12-22T20:25:03.915Z,2.20
2018-12-22T20:27:32.065Z,2.35
2018-12-22T20:30:00.256Z,1.82
2018-12-22T20:32:28.448Z,2.72
2018-12-22T20:34:56.641Z,2.08
2018-12-22T20:37:24.816Z,1.62
2018-12-22T20:39:54.020Z,1.80
2018-12-22T20:42:22.209Z,1.82
2018-12-22T20:44:50.398Z,1.65
2018-12-22T20:47:18.487Z,1.98
2018-12-22T20:49:46.660Z,1.40
2018-12-22T20:52:14.851Z,1.35
2018-12-22T20:54:43.036Z,2.00
2018-12-22T20:57:11.227Z,1.90
2018-12-22T20:59:39.561Z,2.20
2018-12-22T21:02:07.697Z,1.80
2018-12-22T21:04:35.900Z,1.75
2018-12-22T21:07:04.076Z,1.32
2018-12-22T21:09:32.224Z,1.70
2018-12-22T21:12:00.340Z,1.75
2018-12-22T21:14:28.552Z,1.32
2018-12-22T21:16:56.736Z,0.80
2018-12-22T21:19:24.902Z,1.30
2018-12-22T21:21:53.100Z,1.40
2018-12-22T21:24:21.281Z,1.77
2018-12-22T21:26:49.469Z,1.50
2018-12-22T21:29:17.657Z,1.25
2018-12-22T21:31:45.860Z,1.35
2018-12-22T21:34:14.019Z,1.45
2018-12-22T21:36:42.215Z,1.72
2018-12-22T21:39:10.419Z,2.22
2018-12-22T21:41:38.601Z,1.92
2018-12-22T21:44:06.768Z,1.80
2018-12-22T21:46:34.965Z,1.45
2018-12-22T21:49:03.152Z,1.65
2018-12-22T21:51:31.352Z,2.58
2018-12-22T21:53:59.520Z,1.95
2018-12-22T21:56:27.723Z,1.95
2018-12-22T21:58:55.896Z,1.55
2018-12-22T22:01:24.092Z,1.45
2018-12-22T22:03:52.363Z,1.80
2018-12-22T22:06:20.564Z,1.95
2018-12-22T22:08:48.756Z,1.67
2018-12-22T22:11:16.943Z,1.77
2018-12-22T22:13:45.337Z,1.75
2018-12-22T22:16:13.612Z,1.95
2018-12-22T22:18:41.808Z,1.82
2018-12-22T22:21:09.992Z,1.65
2018-12-22T22:23:38.108Z,1.30
2018-12-22T22:26:06.264Z,1.80
2018-12-22T22:28:34.461Z,1.55
2018-12-22T22:31:02.725Z,1.42
2018-12-22T22:33:30.944Z,2.10
2018-12-22T22:35:59.216Z,1.52
2018-12-22T22:38:27.408Z,1.60
2018-12-22T22:40:55.596Z,1.40
2018-12-22T22:43:23.784Z,1.67
2018-12-22T22:45:51.978Z,1.72
2018-12-22T22:48:20.148Z,1.35
2018-12-22T22:50:48.340Z,1.67
2018-12-22T22:53:16.536Z,1.75
2018-12-22T22:55:44.708Z,2.35
2018-12-22T22:58:12.898Z,2.05
2018-12-22T23:00:41.828Z,2.47
2018-12-22T23:03:09.993Z,2.27
2018-12-22T23:05:38.179Z,2.08
2018-12-22T23:08:06.369Z,1.95
2018-12-22T23:10:34.652Z,1.67
2018-12-22T23:13:02.839Z,1.87
2018-12-22T23:15:31.033Z,2.30
2018-12-22T23:17:59.216Z,1.87
2018-12-22T23:20:27.424Z,1.60
2018-12-22T23:22:56.625Z,2.02
2018-12-22T23:25:24.800Z,1.92
2018-12-22T23:27:53.134Z,2.22
2018-12-22T23:30:21.376Z,2.12
2018-12-22T23:32:49.556Z,2.60
2018-12-22T23:35:17.760Z,1.72
2018-12-22T23:37:46.028Z,2.05
2018-12-22T23:40:14.227Z,2.52
2018-12-22T23:42:42.403Z,2.12
2018-12-22T23:45:10.604Z,1.90
2018-12-22T23:47:38.800Z,1.80
2018-12-22T23:50:07.312Z,2.30
2018-12-22T23:52:35.495Z,2.58
2018-12-22T23:55:03.823Z,2.77
2018-12-22T23:57:32.068Z,1.90
